Rooseveltown, New York
Current Conditions -  °F | °C
As of 2:53 AM on Wednesday 22 Oct 2014 (Local Time) from KMSS Reporting Station
Overcast Overcast  
Wind Chill: 38°   Ceiling: 2100
Heat Index: 45°   Visibility: 10mi
Dew Point: 34°   Wind: 17mph
Humidity: 65%   Direction: 50°NE
Pressure: 30.17"   Gusts: NA
Location:  44.97°N, 74.73°W
Report Text: KMSS 220653Z AUTO 05015KT 10SM OVC021 07/01 A3017 RMK AO2 SLP218 T00720011
Loading
Personal Weather Stations






























Interactive Weather Map
Tropical Storm Tracking
New forecast layout! Learn more

10-Day Weather Forecast

Advertisements
Track Severe Weather on mobile